Main page
METAR-TAF:

METAR-TAF

Airports :

Shillong Airport

Shillong, India

latitude: 25-42-13N, longitude: 091-58-43E, elevation: 887 m

Current weather observation

The report was made 9 hours and 39 minutes ago, at 10:30 UTC
Wind 4 kt from the Northeast
Temperature 23°C
Humidity 69%
Pressure 1014 hPa
Visibility: 3000 m
Scattered clouds at a height of 2000 ft
Broken clouds at a height of 2500 ft
haze

METAR: VEBI 011030Z 04004KT 3000 HZ SCT020 BKN025 23/17 Q1014 BECMG 2000 HZ

Time: 01:39 (20:09 UTC)

Forecast

The report was made 12 hours and 9 minutes ago, at 08:00 UTC
Forecast valid from 01 at 09 UTC to 01 at 18 UTC
Wind 5 kt from the East
Visibility: 5000 m
Few clouds at a height of 2000 ft
haze
Becoming
from 01 at 12 UTC to 01 at 14 UTC
Wind kt from the North
Visibility: 3000 m
mist

TAF: VEBI 010800Z 0109/0118 09005KT 5000 HZ FEW020 BECMG 0112/0114 00000KT 3000 BR

Weather observations and forecasts of more than 4000 airports (METAR and TAF reports).

The available stations are represented by yellow and red dots on the map.

Hover mouse over dot to see the name of the station.

Then click to see weather observations and forecasts.

To change the map : click on the green buttons with a black cross to zoom in, on the green button with a dash to zoom out, or on the green arrows for adjacent maps.


METAR-TAF: